Time;durP1;ratioP1;P1;durP2;ratioP2;P2;SDS_P1;SDS_P2;PMS_P1;PMS_P2;Temp;Humidity;BMP_temperature;BMP_pressure;BME280_temperature;BME280_humidity;BME280_pressure;Samples;Min_cycle;Max_cycle;Signal;HPM_P1;HPM_P2
2021/10/17 00:00:12;;;;;;;13.55;6.72;;;;;;;7.70;100.00;95254.56;5089185;28;20546;-72
2021/10/17 00:02:40;;;;;;;13.63;6.97;;;;;;;7.62;100.00;95232.25;5091869;28;20134;-73
2021/10/17 00:05:09;;;;;;;12.60;6.60;;;;;;;7.72;100.00;95253.34;5096102;28;20083;-73
2021/10/17 00:07:40;;;;;;;15.65;7.10;;;;;;;7.66;100.00;95259.34;5089103;28;20044;-72
2021/10/17 00:10:10;;;;;;;13.30;6.97;;;;;;;7.63;100.00;95244.19;5087968;28;20048;-73
2021/10/17 00:12:37;;;;;;;12.57;6.45;;;;;;;7.53;100.00;95239.44;5092480;28;20047;-73
2021/10/17 00:15:06;;;;;;;15.52;7.82;;;;;;;7.71;100.00;95246.59;5093858;28;20047;-72
2021/10/17 00:17:33;;;;;;;13.20;7.22;;;;;;;7.56;100.00;95233.03;5079093;28;20370;-73
2021/10/17 00:20:00;;;;;;;12.02;7.50;;;;;;;7.63;100.00;95234.66;5096020;28;20071;-72
2021/10/17 00:22:27;;;;;;;13.13;7.20;;;;;;;7.67;100.00;95255.78;5094942;28;20059;-73
2021/10/17 00:24:53;;;;;;;10.57;6.25;;;;;;;7.66;100.00;95249.78;5076601;28;20068;-73
2021/10/17 00:27:20;;;;;;;11.82;7.32;;;;;;;7.70;100.00;95252.75;5075962;28;20101;-73
2021/10/17 00:29:47;;;;;;;14.73;7.72;;;;;;;7.71;100.00;95244.00;5091836;28;20033;-73
2021/10/17 00:32:14;;;;;;;12.48;6.70;;;;;;;7.61;100.00;95233.25;5089601;28;20427;-73
2021/10/17 00:34:41;;;;;;;12.60;7.07;;;;;;;7.71;100.00;95228.44;5068603;28;20503;-73
2021/10/17 00:37:08;;;;;;;12.30;7.20;;;;;;;7.73;100.00;95239.41;5075291;28;20036;-72
2021/10/17 00:39:35;;;;;;;11.88;5.80;;;;;;;7.75;100.00;95241.78;5091714;28;20577;-72
2021/10/17 00:42:04;;;;;;;12.57;6.95;;;;;;;7.68;100.00;95236.63;5076252;28;22018;-72
2021/10/17 00:44:32;;;;;;;12.95;7.25;;;;;;;7.66;100.00;95243.81;5092586;28;20479;-72
2021/10/17 00:46:59;;;;;;;12.25;7.40;;;;;;;7.68;100.00;95243.59;5091487;28;20044;-72
2021/10/17 00:49:26;;;;;;;12.55;6.85;;;;;;;7.58;100.00;95241.41;5091140;28;20032;-72
2021/10/17 00:51:54;;;;;;;14.15;7.30;;;;;;;7.59;100.00;95251.59;5097923;28;20064;-72
2021/10/17 00:54:21;;;;;;;13.25;7.80;;;;;;;7.60;100.00;95236.84;5071002;28;20458;-71
2021/10/17 00:56:48;;;;;;;12.88;7.22;;;;;;;7.63;100.00;95239.84;5090560;28;20040;-72
2021/10/17 00:59:15;;;;;;;12.70;7.22;;;;;;;7.66;100.00;95233.44;5074048;28;20044;-72
2021/10/17 01:01:42;;;;;;;14.45;7.45;;;;;;;7.65;100.00;95226.66;5099587;28;20043;-72
2021/10/17 01:04:09;;;;;;;12.98;7.25;;;;;;;7.64;100.00;95235.44;5080063;28;20068;-73
2021/10/17 01:06:37;;;;;;;14.02;7.00;;;;;;;7.54;100.00;95240.22;5096715;28;20727;-72
2021/10/17 01:09:05;;;;;;;13.40;6.93;;;;;;;7.55;100.00;95247.03;5073616;28;20036;-72
2021/10/17 01:11:47;;;;;;;12.98;7.22;;;;;;;7.60;100.00;95249.81;5072482;28;20489;-73
2021/10/17 01:14:22;;;;;;;14.60;6.43;;;;;;;7.58;100.00;95246.59;5073525;28;20486;-72
2021/10/17 01:16:50;;;;;;;12.90;7.43;;;;;;;7.58;100.00;95246.59;5073467;28;20127;-72
2021/10/17 01:19:18;;;;;;;11.98;6.85;;;;;;;7.56;100.00;95248.59;5078570;28;20428;-72
2021/10/17 01:21:50;;;;;;;14.70;6.55;;;;;;;7.58;100.00;95251.78;5075850;28;20047;-72
2021/10/17 01:24:18;;;;;;;15.70;7.60;;;;;;;7.50;100.00;95254.59;5087673;28;20048;-72
2021/10/17 01:26:46;;;;;;;13.15;6.82;;;;;;;7.40;100.00;95245.44;5093524;28;20062;-72
2021/10/17 01:29:13;;;;;;;16.05;8.73;;;;;;;7.50;100.00;95254.59;5076887;28;20050;-72
2021/10/17 01:31:46;;;;;;;16.55;8.95;;;;;;;7.52;100.00;95255.19;5081692;28;20079;-72
2021/10/17 01:34:14;;;;;;;14.80;8.25;;;;;;;7.49;100.00;95260.75;5067973;28;20294;-72
2021/10/17 01:36:42;;;;;;;12.25;7.78;;;;;;;7.53;100.00;95254.19;5074361;28;20067;-72
2021/10/17 01:39:11;;;;;;;13.98;7.97;;;;;;;7.49;100.00;95253.81;5092503;28;20047;-72
2021/10/17 01:41:39;;;;;;;14.38;8.63;;;;;;;7.52;100.00;95252.59;5072234;28;20051;-72
2021/10/17 01:44:09;;;;;;;14.48;8.63;;;;;;;7.49;100.00;95247.81;5070745;28;20047;-73
2021/10/17 01:46:37;;;;;;;14.65;8.98;;;;;;;7.54;100.00;95255.78;5073420;28;20054;-72
2021/10/17 01:49:07;;;;;;;15.13;7.72;;;;;;;7.43;100.00;95239.03;5068666;28;20046;-72
2021/10/17 01:51:41;;;;;;;18.95;8.68;;;;;;;7.56;100.00;95253.78;5075579;28;20048;-72
2021/10/17 01:54:08;;;;;;;13.80;8.30;;;;;;;7.53;100.00;95249.03;5074477;28;20755;-72
2021/10/17 01:56:36;;;;;;;17.85;9.23;;;;;;;7.56;100.00;95248.59;5073273;28;20043;-72
2021/10/17 01:59:05;;;;;;;14.70;8.35;;;;;;;7.54;100.00;95251.38;5069696;28;20036;-72
2021/10/17 02:01:44;;;;;;;17.02;8.77;;;;;;;7.54;100.00;95245.41;5077252;28;20048;-72
2021/10/17 02:04:12;;;;;;;15.75;7.82;;;;;;;7.44;100.00;95227.69;5078567;28;20051;-72
2021/10/17 02:06:39;;;;;;;17.75;9.05;;;;;;;7.55;100.00;95236.66;5073964;28;20112;-72
2021/10/17 02:09:06;;;;;;;16.98;9.02;;;;;;;7.47;100.00;95241.03;5074015;28;20098;-72
2021/10/17 02:11:33;;;;;;;16.60;8.60;;;;;;;7.53;100.00;95249.03;5071935;28;20062;-73
2021/10/17 02:14:03;;;;;;;22.38;11.13;;;;;;;7.44;100.00;95238.84;5074303;28;20051;-72
2021/10/17 02:16:31;;;;;;;16.25;9.30;;;;;;;7.54;100.00;95243.59;5076048;28;20043;-72
2021/10/17 02:18:58;;;;;;;19.10;10.05;;;;;;;7.48;100.00;95241.84;5074849;28;20119;-72
2021/10/17 02:21:25;;;;;;;19.95;10.07;;;;;;;7.52;100.00;95247.41;5072838;28;20044;-71
2021/10/17 02:23:53;;;;;;;22.20;9.50;;;;;;;7.50;100.00;95239.84;5067557;28;20052;-72
2021/10/17 02:26:21;;;;;;;17.13;9.00;;;;;;;7.49;100.00;95237.44;5072793;28;20737;-72
2021/10/17 02:29:07;;;;;;;20.13;10.77;;;;;;;7.53;100.00;95254.19;5087009;28;20047;-72
2021/10/17 02:31:46;;;;;;;20.70;10.20;;;;;;;7.57;100.00;95245.03;5072796;28;20060;-71
2021/10/17 02:34:12;;;;;;;20.40;10.00;;;;;;;7.56;100.00;95248.59;5073834;28;20516;-72
2021/10/17 02:36:40;;;;;;;20.48;12.68;;;;;;;7.54;100.00;95245.41;5077061;28;20079;-72
2021/10/17 02:39:08;;;;;;;20.45;11.60;;;;;;;7.53;100.00;95243.84;5060665;28;20036;-72
2021/10/17 02:41:35;;;;;;;20.67;9.98;;;;;;;7.47;100.00;95241.03;5075483;28;20047;-72
2021/10/17 02:44:03;;;;;;;17.00;8.90;;;;;;;7.44;100.00;95233.66;5075213;28;20139;-72
2021/10/17 02:46:30;;;;;;;19.02;9.95;;;;;;;7.51;100.00;95246.63;5069828;28;20048;-72
2021/10/17 02:48:58;;;;;;;19.10;10.27;;;;;;;7.53;100.00;95249.03;5075122;28;20050;-72
2021/10/17 02:51:25;;;;;;;21.63;10.70;;;;;;;7.58;100.00;95251.78;5070658;28;20055;-73
2021/10/17 02:53:51;;;;;;;22.80;10.93;;;;;;;7.52;100.00;95253.38;5069238;28;20442;-72
2021/10/17 02:56:18;;;;;;;18.80;9.15;;;;;;;7.54;100.00;95258.38;5092741;28;20482;-73
2021/10/17 02:58:45;;;;;;;22.77;13.23;;;;;;;7.49;100.00;95245.22;5078946;28;20044;-72
2021/10/17 03:01:13;;;;;;;18.55;10.32;;;;;;;7.46;100.00;95259.38;5072374;28;20172;-72
2021/10/17 03:03:41;;;;;;;22.55;11.20;;;;;;;7.46;100.00;95257.56;5076446;28;20035;-72
2021/10/17 03:06:08;;;;;;;21.45;10.27;;;;;;;7.53;100.00;95269.75;5070082;28;21976;-72
2021/10/17 03:08:38;;;;;;;22.60;11.82;;;;;;;7.53;100.00;95259.38;5071914;28;20048;-72
2021/10/17 03:11:06;;;;;;;24.00;11.63;;;;;;;7.47;100.00;95261.78;5073216;28;20040;-72
2021/10/17 03:13:35;;;;;;;18.48;10.32;;;;;;;7.52;100.00;95268.16;5077811;28;20109;-72
2021/10/17 03:16:04;;;;;;;20.98;11.65;;;;;;;7.48;100.00;95262.56;5076547;28;20042;-72
2021/10/17 03:18:31;;;;;;;20.33;10.30;;;;;;;7.54;100.00;95255.78;5093439;28;20405;-72
2021/10/17 03:20:58;;;;;;;21.35;11.05;;;;;;;7.50;100.00;95264.97;5085862;28;20125;-72
2021/10/17 03:23:26;;;;;;;20.48;11.05;;;;;;;7.55;100.00;95272.94;5071451;28;20044;-72
2021/10/17 03:25:53;;;;;;;22.27;11.35;;;;;;;7.33;100.00;95242.06;5087621;28;20408;-72
2021/10/17 03:28:20;;;;;;;17.50;9.05;;;;;;;7.51;100.00;95271.72;5077359;28;20093;-72
2021/10/17 03:30:50;;;;;;;21.77;10.48;;;;;;;7.55;100.00;95278.13;5075286;28;20067;-72
2021/10/17 03:33:17;;;;;;;25.35;11.18;;;;;;;7.51;100.00;95269.13;5071066;28;20134;-72
2021/10/17 03:35:49;;;;;;;21.45;11.50;;;;;;;7.51;100.00;95271.72;5072562;28;20226;-72
2021/10/17 03:38:16;;;;;;;19.02;10.95;;;;;;;7.38;100.00;95262.97;5060216;28;20122;-72
2021/10/17 03:40:44;;;;;;;20.10;11.13;;;;;;;7.40;100.00;95266.16;5075259;28;20121;-72
2021/10/17 03:43:10;;;;;;;21.08;12.35;;;;;;;7.45;100.00;95274.16;5076739;28;20055;-72
2021/10/17 03:45:46;;;;;;;22.30;12.02;;;;;;;7.54;100.00;95279.09;5070171;28;20075;-72
2021/10/17 03:48:13;;;;;;;22.95;11.48;;;;;;;7.56;100.00;95279.69;5073043;28;20040;-72
2021/10/17 03:50:40;;;;;;;26.00;12.07;;;;;;;7.51;100.00;95272.53;5072982;28;20595;-72
2021/10/17 03:53:07;;;;;;;23.00;10.70;;;;;;;7.59;100.00;95280.09;5091976;28;20047;-72
2021/10/17 03:55:34;;;;;;;20.80;11.43;;;;;;;7.55;100.00;95268.53;5081900;28;20612;-72
2021/10/17 03:58:01;;;;;;;25.75;11.18;;;;;;;7.64;100.00;95282.09;5079186;28;20085;-72
2021/10/17 04:00:28;;;;;;;25.73;11.68;;;;;;;7.63;100.00;95285.69;5078223;28;20043;-72
2021/10/17 04:03:03;;;;;;;21.75;10.85;;;;;;;7.71;100.00;95282.88;5073779;28;20043;-72
2021/10/17 04:05:30;;;;;;;21.50;11.13;;;;;;;7.71;100.00;95277.69;5075914;28;20542;-72
2021/10/17 04:07:57;;;;;;;22.27;11.18;;;;;;;7.75;100.00;95278.09;5071770;28;20527;-71
2021/10/17 04:10:29;;;;;;;24.23;12.02;;;;;;;7.74;100.00;95292.88;5073306;28;20052;-72
2021/10/17 04:12:57;;;;;;;19.27;11.05;;;;;;;7.64;100.00;95263.94;5074075;28;20509;-72
2021/10/17 04:15:24;;;;;;;24.50;11.18;;;;;;;7.75;100.00;95288.47;5060593;28;20056;-71
2021/10/17 04:17:50;;;;;;;22.00;10.82;;;;;;;7.74;100.00;95287.69;5091195;28;22140;-72
2021/10/17 04:20:17;;;;;;;30.20;13.55;;;;;;;7.76;100.00;95280.50;5088575;28;20044;-72
2021/10/17 04:22:45;;;;;;;26.10;13.35;;;;;;;7.73;100.00;95283.47;5073761;28;20040;-71
2021/10/17 04:25:12;;;;;;;21.52;9.98;;;;;;;7.72;100.00;95284.47;5075078;28;20112;-74
2021/10/17 04:27:38;;;;;;;23.65;12.95;;;;;;;7.66;100.00;95280.88;5072068;28;20040;-73
2021/10/17 04:30:08;;;;;;;24.42;11.88;;;;;;;7.59;100.00;95274.13;5070797;28;20574;-73
2021/10/17 04:32:34;;;;;;;26.52;12.25;;;;;;;7.70;100.00;95291.66;5071886;28;20501;-73
2021/10/17 04:35:02;;;;;;;25.25;13.20;;;;;;;7.67;100.00;95292.06;5075866;28;20039;-73
2021/10/17 04:37:29;;;;;;;24.88;13.40;;;;;;;7.79;100.00;95294.84;5088896;28;20039;-73
2021/10/17 04:39:56;;;;;;;26.58;12.35;;;;;;;7.71;100.00;95287.28;5091506;28;20070;-73
2021/10/17 04:42:23;;;;;;;26.30;13.43;;;;;;;7.82;100.00;95303.00;5076858;28;20429;-73
2021/10/17 04:44:52;;;;;;;28.08;13.82;;;;;;;7.73;100.00;95299.03;5075064;28;20051;-73
2021/10/17 04:47:19;;;;;;;27.48;12.30;;;;;;;7.75;100.00;95298.84;5072498;28;20566;-73
2021/10/17 04:49:46;;;;;;;32.97;13.27;;;;;;;7.75;100.00;95317.78;5070342;28;20059;-73
2021/10/17 04:52:13;;;;;;;24.55;12.70;;;;;;;7.76;100.00;95309.03;5062653;28;20052;-73
2021/10/17 04:54:39;;;;;;;23.45;12.40;;;;;;;7.77;100.00;95317.59;5085668;28;20047;-73
2021/10/17 04:57:07;;;;;;;27.25;13.38;;;;;;;7.84;100.00;95316.56;5069719;28;20074;-72
2021/10/17 04:59:36;;;;;;;24.10;12.18;;;;;;;7.85;100.00;95314.78;5070076;28;20077;-73
2021/10/17 05:02:03;;;;;;;26.88;13.93;;;;;;;7.90;100.00;95321.97;5072945;28;20048;-73
2021/10/17 05:04:31;;;;;;;41.85;18.90;;;;;;;7.76;100.00;95311.63;5089245;28;20051;-72
2021/10/17 05:06:58;;;;;;;29.33;14.13;;;;;;;7.94;100.00;95328.31;5076178;28;20051;-74
2021/10/17 05:09:25;;;;;;;32.65;14.25;;;;;;;7.95;100.00;95329.94;5075483;28;20044;-73
2021/10/17 05:11:53;;;;;;;30.10;14.02;;;;;;;7.97;100.00;95328.72;5075045;28;20052;-73
2021/10/17 05:14:20;;;;;;;32.15;14.13;;;;;;;8.00;100.00;95327.53;5077002;28;20777;-74
2021/10/17 05:16:47;;;;;;;30.40;14.98;;;;;;;8.12;100.00;95331.13;5076986;28;20471;-73
2021/10/17 05:19:16;;;;;;;26.65;14.52;;;;;;;8.14;100.00;95336.88;5076500;28;20040;-73
2021/10/17 05:21:45;;;;;;;26.90;14.57;;;;;;;8.12;100.00;95345.84;5077189;28;21448;-73
2021/10/17 05:24:12;;;;;;;25.55;13.73;;;;;;;8.18;100.00;95345.84;5083658;28;20124;-72
2021/10/17 05:26:39;;;;;;;22.90;11.52;;;;;;;8.22;100.00;95352.22;5082088;28;20134;-72
2021/10/17 05:29:05;;;;;;;26.20;12.65;;;;;;;8.21;100.00;95355.84;5081831;28;20046;-72
2021/10/17 05:31:34;;;;;;;26.73;13.57;;;;;;;8.26;100.00;95357.81;5082877;28;20492;-72
2021/10/17 05:34:01;;;;;;;34.05;17.20;;;;;;;8.30;100.00;95353.00;5099054;28;20104;-72
2021/10/17 05:36:28;;;;;;;26.70;13.30;;;;;;;8.32;100.00;95356.19;5077212;28;20059;-73
2021/10/17 05:38:56;;;;;;;21.42;11.57;;;;;;;8.39;100.00;95354.38;5081429;28;20083;-72
2021/10/17 05:41:25;;;;;;;24.35;12.70;;;;;;;8.38;100.00;95365.78;5081676;28;20124;-72
2021/10/17 05:43:53;;;;;;;22.80;12.25;;;;;;;8.40;100.00;95358.59;5080481;28;20093;-72
2021/10/17 05:46:20;;;;;;;24.58;13.73;;;;;;;8.28;100.00;95352.41;5080146;28;20102;-72
2021/10/17 05:48:50;;;;;;;25.95;12.77;;;;;;;8.29;100.00;95352.22;5076887;28;20658;-72
2021/10/17 05:51:17;;;;;;;27.48;12.98;;;;;;;8.41;100.00;95365.38;5087923;28;20447;-72
2021/10/17 05:53:47;;;;;;;26.90;13.68;;;;;;;8.31;100.00;95354.63;5081575;28;20043;-72
2021/10/17 05:56:14;;;;;;;28.55;13.95;;;;;;;8.28;100.00;95365.41;5083521;28;20129;-72
2021/10/17 05:58:41;;;;;;;25.23;12.30;;;;;;;8.43;100.00;95368.59;5086120;28;20094;-72
2021/10/17 06:01:08;;;;;;;27.67;13.73;;;;;;;8.42;100.00;95367.78;5087433;28;20062;-72
2021/10/17 06:03:40;;;;;;;27.73;13.55;;;;;;;8.51;100.00;95381.34;5079258;28;20047;-72
2021/10/17 06:06:40;;;;;;;26.50;13.15;;;;;;;8.49;100.00;95362.59;5070119;28;20515;-73
2021/10/17 06:09:10;;;;;;;26.42;12.88;;;;;;;8.55;100.00;95366.97;5082716;28;20048;-73
2021/10/17 06:11:40;;;;;;;24.65;11.77;;;;;;;8.57;100.00;95370.16;5081541;28;20064;-73
2021/10/17 06:14:08;;;;;;;24.23;13.63;;;;;;;8.72;100.00;95388.06;5081399;28;20100;-73
2021/10/17 06:16:35;;;;;;;28.08;14.00;;;;;;;8.78;100.00;95371.66;5084462;28;20054;-73
2021/10/17 06:19:02;;;;;;;26.60;14.52;;;;;;;8.92;100.00;95390.59;5082065;28;20116;-72
2021/10/17 06:21:37;;;;;;;29.38;14.60;;;;;;;8.98;100.00;95387.19;5085242;28;20161;-71
2021/10/17 06:24:05;;;;;;;29.13;15.52;;;;;;;9.09;100.00;95388.34;5086471;28;20485;-71
2021/10/17 06:26:33;;;;;;;28.50;15.25;;;;;;;9.19;100.00;95390.47;5079373;28;20052;-71
2021/10/17 06:28:59;;;;;;;38.00;16.30;;;;;;;9.24;100.00;95390.66;5086727;28;20093;-71
2021/10/17 06:31:27;;;;;;;31.35;15.77;;;;;;;9.31;100.00;95391.41;5080551;28;20418;-70
2021/10/17 06:33:56;;;;;;;27.23;14.07;;;;;;;9.33;100.00;95389.41;5084569;28;21353;-71
2021/10/17 06:36:25;;;;;;;28.55;13.20;;;;;;;9.37;100.00;95390.56;5082057;28;20527;-71
2021/10/17 06:38:52;;;;;;;24.88;12.95;;;;;;;9.44;100.00;95384.56;5085998;28;20050;-71
2021/10/17 06:41:19;;;;;;;70.25;33.03;;;;;;;9.45;100.00;95396.53;5080948;28;20104;-71
2021/10/17 06:43:47;;;;;;;28.77;14.93;;;;;;;9.43;100.00;95403.75;5077778;28;20073;-71
2021/10/17 06:46:26;;;;;;;24.92;11.20;;;;;;;9.39;100.00;95398.16;5068243;28;20339;-71
2021/10/17 06:48:52;;;;;;;20.58;11.57;;;;;;;9.36;100.00;95403.78;5091964;28;20040;-72
2021/10/17 06:51:19;;;;;;;25.02;12.38;;;;;;;9.45;100.00;95399.13;5075042;28;20047;-71
2021/10/17 06:53:46;;;;;;;24.40;12.35;;;;;;;9.46;100.00;95392.94;5070484;28;20048;-72
2021/10/17 06:56:16;;;;;;;23.88;12.50;;;;;;;9.53;100.00;95404.09;5071526;28;20051;-72
2021/10/17 06:58:44;;;;;;;21.35;11.88;;;;;;;9.30;100.00;95394.22;5071208;28;20047;-72
2021/10/17 07:01:10;;;;;;;26.05;11.48;;;;;;;9.33;100.00;95389.41;5090950;28;20052;-72
2021/10/17 07:03:42;;;;;;;23.95;12.18;;;;;;;9.54;100.00;95400.47;5067021;28;20055;-72
2021/10/17 07:06:14;;;;;;;28.40;13.40;;;;;;;9.57;100.00;95392.25;5073227;28;20713;-72
2021/10/17 07:08:45;;;;;;;25.13;13.07;;;;;;;9.58;100.00;95399.06;5072096;28;20048;-72
2021/10/17 07:11:22;;;;;;;23.58;13.90;;;;;;;9.64;100.00;95400.81;5068814;28;20520;-72
2021/10/17 07:13:56;;;;;;;21.67;11.73;;;;;;;9.62;100.00;95402.81;5069830;28;20138;-72
2021/10/17 07:16:28;;;;;;;25.98;12.15;;;;;;;9.61;100.00;95411.63;5093503;28;20078;-71
2021/10/17 07:18:55;;;;;;;26.38;12.30;;;;;;;9.74;100.00;95411.56;5075615;28;20123;-73
2021/10/17 07:21:22;;;;;;;24.15;11.85;;;;;;;9.74;100.00;95414.16;5070199;28;20538;-72
2021/10/17 07:23:50;;;;;;;23.00;11.70;;;;;;;9.93;100.00;95419.41;5074474;28;20040;-71
2021/10/17 07:26:17;;;;;;;21.10;10.80;;;;;;;10.05;100.00;95417.72;5070909;28;20154;-71
2021/10/17 07:28:44;;;;;;;21.80;13.13;;;;;;;10.00;100.00;95401.16;5091731;28;20420;-72
2021/10/17 07:31:12;;;;;;;23.92;12.23;;;;;;;10.13;100.00;95414.03;5099138;28;20654;-71
2021/10/17 07:34:02;;;;;;;20.15;12.02;;;;;;;10.27;100.00;95414.72;5077138;28;20040;-71
2021/10/17 07:36:29;;;;;;;23.27;12.02;;;;;;;10.29;100.00;95399.69;5077994;28;20059;-72
2021/10/17 07:39:11;;;;;;;20.92;11.48;;;;;;;10.48;100.00;95419.56;5070140;28;20052;-73
2021/10/17 07:41:46;;;;;;;20.05;10.63;;;;;;;10.44;100.00;95421.03;5072445;28;20417;-70
2021/10/17 07:44:15;;;;;;;17.75;9.43;;;;;;;10.49;100.00;95422.97;5068692;28;20501;-71
2021/10/17 07:46:55;;;;;;;21.48;11.05;;;;;;;10.59;100.00;95427.66;5072250;28;20135;-71
2021/10/17 07:49:25;;;;;;;19.70;10.35;;;;;;;10.68;100.00;95426.41;5075354;28;20036;-71
2021/10/17 07:51:54;;;;;;;17.15;9.68;;;;;;;10.70;100.00;95434.78;5079344;28;20047;-72
2021/10/17 07:54:21;;;;;;;14.73;8.35;;;;;;;10.70;100.00;95427.75;5072379;28;20425;-71
2021/10/17 07:56:49;;;;;;;16.17;9.20;;;;;;;10.72;100.00;95432.75;5095342;28;20484;-71
2021/10/17 07:59:19;;;;;;;14.60;8.68;;;;;;;10.82;100.00;95417.41;5067165;28;20039;-71
2021/10/17 08:01:45;;;;;;;18.85;9.50;;;;;;;10.95;100.00;95415.66;5075393;28;20079;-71
2021/10/17 08:04:28;;;;;;;16.33;8.98;;;;;;;11.04;100.00;95416.97;5070233;28;20153;-72
2021/10/17 08:07:05;;;;;;;15.63;8.43;;;;;;;11.04;100.00;95420.38;5074221;28;20048;-72
2021/10/17 08:09:32;;;;;;;20.33;10.32;;;;;;;11.18;100.00;95415.78;5074408;28;20039;-72
2021/10/17 08:12:01;;;;;;;17.67;10.35;;;;;;;11.27;100.00;95418.88;5084803;28;20126;-72
2021/10/17 08:14:31;;;;;;;22.15;11.38;;;;;;;11.28;99.74;95421.25;5084457;28;20039;-73
2021/10/17 08:17:00;;;;;;;19.70;11.30;;;;;;;11.15;99.56;95416.22;5077241;28;20063;-73
2021/10/17 08:19:53;;;;;;;23.52;11.05;;;;;;;11.22;100.00;95422.16;5078968;28;20036;-73
2021/10/17 08:22:21;;;;;;;18.42;9.32;;;;;;;11.20;99.38;95429.41;5073387;28;20040;-72
2021/10/17 08:24:48;;;;;;;16.33;9.85;;;;;;;11.03;99.75;95397.91;5076872;28;20513;-73
2021/10/17 08:27:15;;;;;;;17.50;9.65;;;;;;;11.18;99.96;95421.00;5078964;28;20081;-71
2021/10/17 08:29:42;;;;;;;15.38;8.10;;;;;;;11.23;100.00;95418.50;5080089;28;20043;-70
2021/10/17 08:32:09;;;;;;;16.92;9.50;;;;;;;11.33;99.53;95417.22;5080464;28;20040;-70
2021/10/17 08:34:43;;;;;;;15.23;7.70;;;;;;;11.50;98.74;95428.59;5098875;28;20428;-71
2021/10/17 08:37:13;;;;;;;15.60;8.45;;;;;;;11.57;98.22;95429.31;5084260;28;20043;-70
2021/10/17 08:39:58;;;;;;;15.93;8.27;;;;;;;11.61;97.93;95425.25;5099886;28;20539;-71
2021/10/17 08:42:45;;;;;;;16.00;8.50;;;;;;;11.54;97.94;95429.78;5096326;28;20072;-69
2021/10/17 08:45:24;;;;;;;14.13;8.63;;;;;;;11.67;98.20;95421.75;5072253;28;20051;-70
2021/10/17 08:47:55;;;;;;;18.90;9.80;;;;;;;11.73;97.99;95424.50;5082657;28;20135;-70
2021/10/17 08:50:23;;;;;;;15.95;7.72;;;;;;;11.82;97.36;95416.09;5083912;28;20044;-70
2021/10/17 08:52:50;;;;;;;11.77;6.53;;;;;;;11.91;98.17;95424.44;5086731;28;20131;-71
2021/10/17 08:55:18;;;;;;;11.48;7.55;;;;;;;12.02;95.82;95425.47;5081285;28;20066;-71
2021/10/17 08:57:53;;;;;;;14.82;8.38;;;;;;;12.08;95.56;95418.56;5080297;28;20050;-69
2021/10/17 09:00:48;;;;;;;10.25;6.32;;;;;;;12.35;95.19;95424.13;5074251;28;20128;-71
2021/10/17 09:03:40;;;;;;;13.70;5.55;;;;;;;12.46;92.60;95425.16;5059273;28;20048;-72
2021/10/17 09:06:15;;;;;;;10.30;6.97;;;;;;;12.58;92.12;95423.34;5086378;28;20127;-71
2021/10/17 09:08:44;;;;;;;16.30;7.85;;;;;;;12.73;91.49;95415.84;5082140;28;20044;-71
2021/10/17 09:11:13;;;;;;;11.55;5.72;;;;;;;12.87;90.59;95416.38;5085273;28;20591;-71
2021/10/17 09:14:02;;;;;;;11.15;5.88;;;;;;;13.13;89.90;95419.50;5105975;28;20047;-72
2021/10/17 09:16:33;;;;;;;13.25;7.95;;;;;;;13.41;90.69;95416.13;5103888;28;20169;-71
2021/10/17 09:19:06;;;;;;;8.60;5.07;;;;;;;13.40;88.27;95409.31;5099770;28;20109;-71
2021/10/17 09:21:34;;;;;;;8.35;5.20;;;;;;;13.77;88.00;95416.75;5096143;28;20048;-71
2021/10/17 09:24:01;;;;;;;5.82;3.53;;;;;;;13.86;86.00;95415.31;5101822;28;20626;-71
2021/10/17 09:26:28;;;;;;;9.02;5.18;;;;;;;13.96;85.40;95412.88;5103335;28;20044;-71
2021/10/17 09:28:55;;;;;;;10.05;5.75;;;;;;;14.22;86.13;95415.88;5103498;28;20048;-71
2021/10/17 09:31:21;;;;;;;5.88;4.20;;;;;;;14.37;83.15;95417.16;5098777;28;20437;-71
2021/10/17 09:33:55;;;;;;;3.45;2.22;;;;;;;14.50;82.90;95416.84;5097691;28;20505;-71
2021/10/17 09:36:29;;;;;;;3.17;2.00;;;;;;;14.52;80.49;95410.31;5087022;28;20079;-72
2021/10/17 09:39:16;;;;;;;3.35;1.90;;;;;;;14.52;80.42;95409.53;5097040;28;20556;-72
2021/10/17 09:42:20;;;;;;;2.15;1.70;;;;;;;14.41;83.22;95407.81;5046958;28;20095;-72
2021/10/17 09:44:57;;;;;;;3.50;2.60;;;;;;;14.33;81.72;95401.94;5077953;28;20048;-72
2021/10/17 09:47:38;;;;;;;2.80;1.60;;;;;;;14.45;80.23;95403.66;5097030;28;20569;-72
2021/10/17 09:50:15;;;;;;;2.58;1.95;;;;;;;14.48;79.88;95408.44;5080703;28;20509;-72
2021/10/17 09:52:58;;;;;;;4.43;1.60;;;;;;;14.58;79.78;95408.56;5101241;28;20512;-72
2021/10/17 09:55:25;;;;;;;4.85;1.50;;;;;;;14.62;77.16;95393.97;5097496;28;20056;-72
2021/10/17 09:57:52;;;;;;;2.20;1.35;;;;;;;14.78;76.37;95407.25;5094692;28;20047;-72
2021/10/17 10:00:20;;;;;;;5.07;3.33;;;;;;;14.66;79.71;95400.31;5096982;28;20131;-72
2021/10/17 10:02:48;;;;;;;9.98;4.57;;;;;;;14.56;80.01;95396.72;5097547;28;20043;-72
2021/10/17 10:05:21;;;;;;;5.90;3.22;;;;;;;14.51;81.06;95402.69;5096934;28;20494;-72
2021/10/17 10:07:51;;;;;;;9.23;4.33;;;;;;;14.48;81.21;95403.97;5099476;28;20426;-72
2021/10/17 10:10:19;;;;;;;5.18;2.85;;;;;;;14.40;81.59;95385.22;5096671;28;20529;-71
2021/10/17 10:12:46;;;;;;;9.50;4.40;;;;;;;14.58;80.18;95392.84;5094129;28;20051;-72
2021/10/17 10:15:14;;;;;;;10.80;4.70;;;;;;;14.65;80.59;95392.69;5093607;28;20094;-72
2021/10/17 10:17:43;;;;;;;10.40;6.32;;;;;;;14.62;80.30;95393.97;5080844;28;20082;-71
2021/10/17 10:20:13;;;;;;;8.40;4.07;;;;;;;14.28;80.61;95378.28;5096116;28;20044;-72
2021/10/17 10:22:43;;;;;;;8.98;5.53;;;;;;;14.39;82.65;95378.44;5079595;28;20093;-72
2021/10/17 10:25:13;;;;;;;12.23;6.55;;;;;;;14.52;81.41;95380.69;5098230;28;21505;-73
2021/10/17 10:27:41;;;;;;;5.90;2.92;;;;;;;14.54;79.57;95381.22;5094072;28;20040;-72
2021/10/17 10:30:30;;;;;;;11.70;4.43;;;;;;;14.74;79.32;95374.72;5076699;28;20056;-72
2021/10/17 10:33:06;;;;;;;7.32;4.07;;;;;;;14.77;78.44;95372.38;5096686;28;20036;-72
2021/10/17 10:35:34;;;;;;;14.57;5.75;;;;;;;14.81;78.56;95370.06;5090768;28;20048;-72
2021/10/17 10:38:00;;;;;;;6.95;3.55;;;;;;;15.01;78.01;95353.78;5089658;28;20052;-72
2021/10/17 10:40:28;;;;;;;14.60;8.05;;;;;;;15.01;77.37;95346.69;5091379;28;20048;-71
2021/10/17 10:42:55;;;;;;;15.35;8.68;;;;;;;15.43;76.83;95367.09;5094559;28;20488;-72
2021/10/17 10:45:35;;;;;;;10.85;5.57;;;;;;;15.52;76.12;95362.19;5073215;28;20039;-72
2021/10/17 10:48:05;;;;;;;3.15;1.95;;;;;;;15.92;74.52;95365.41;5075690;28;20445;-72
2021/10/17 10:50:41;;;;;;;5.22;3.78;;;;;;;16.01;72.44;95341.06;5094111;28;20505;-73
2021/10/17 10:53:49;;;;;;;5.85;2.63;;;;;;;16.00;74.39;95359.69;5088207;28;20704;-72
2021/10/17 10:56:37;;;;;;;2.50;1.10;;;;;;;16.05;71.01;95359.75;5096265;28;20055;-72
2021/10/17 10:59:05;;;;;;;1.60;0.93;;;;;;;15.94;71.12;95355.47;5090682;28;20032;-71
2021/10/17 11:02:18;;;;;;;3.67;2.00;;;;;;;16.00;71.98;95359.69;5094736;28;20717;-72
2021/10/17 11:04:57;;;;;;;2.33;1.23;;;;;;;15.93;72.38;95348.63;5096725;28;20032;-71
2021/10/17 11:07:30;;;;;;;5.65;2.00;;;;;;;15.89;72.35;95352.78;5094727;28;20051;-72
2021/10/17 11:10:23;;;;;;;4.50;2.35;;;;;;;15.74;72.78;95345.56;5089530;28;20040;-72
2021/10/17 11:12:54;;;;;;;4.32;2.65;;;;;;;15.72;73.46;95345.81;5074720;28;20048;-71
2021/10/17 11:15:25;;;;;;;3.20;2.05;;;;;;;15.96;72.54;95342.88;5086311;28;20043;-72
2021/10/17 11:17:59;;;;;;;1.73;1.05;;;;;;;16.28;70.77;95339.38;5054569;28;20044;-73
2021/10/17 11:20:29;;;;;;;3.80;3.50;;;;;;;16.73;68.29;95338.03;5091680;28;20038;-73
2021/10/17 11:22:57;;;;;;;4.70;3.20;;;;;;;16.96;68.45;95334.19;5093917;28;20052;-73
2021/10/17 11:25:26;;;;;;;9.98;3.53;;;;;;;17.20;65.89;95334.53;5073720;28;20416;-72
2021/10/17 11:27:53;;;;;;;1.35;1.05;;;;;;;17.21;65.89;95336.09;5089490;28;20479;-73
2021/10/17 11:30:34;;;;;;;8.05;3.90;;;;;;;17.51;64.02;95334.56;5091024;28;20108;-73
2021/10/17 11:33:15;;;;;;;2.03;1.17;;;;;;;17.29;64.51;95327.72;5091245;28;20047;-73
2021/10/17 11:35:42;;;;;;;1.73;1.00;;;;;;;17.15;64.20;95329.25;5090939;28;20044;-72